sensor_id;sensor_type;location;lat;lon;timestamp;P1;durP1;ratioP1;P2;durP2;ratioP2
43118;SDS011;28729;49.838;8.650;2023-06-14T00:00:21;6.55;;;4.30;;
43118;SDS011;28729;49.838;8.650;2023-06-14T00:04:23;6.95;;;4.10;;
43118;SDS011;28729;49.838;8.650;2023-06-14T00:12:29;6.75;;;4.30;;
43118;SDS011;28729;49.838;8.650;2023-06-14T00:16:31;6.70;;;3.95;;
43118;SDS011;28729;49.838;8.650;2023-06-14T00:20:35;6.85;;;4.95;;
43118;SDS011;28729;49.838;8.650;2023-06-14T00:24:36;8.00;;;4.03;;
43118;SDS011;28729;49.838;8.650;2023-06-14T00:28:38;8.13;;;4.30;;
43118;SDS011;28729;49.838;8.650;2023-06-14T00:32:40;6.20;;;3.87;;
43118;SDS011;28729;49.838;8.650;2023-06-14T00:36:44;7.38;;;4.00;;
43118;SDS011;28729;49.838;8.650;2023-06-14T00:40:48;5.13;;;4.05;;
43118;SDS011;28729;49.838;8.650;2023-06-14T00:44:51;7.40;;;4.93;;
43118;SDS011;28729;49.838;8.650;2023-06-14T00:48:53;6.20;;;4.40;;
43118;SDS011;28729;49.838;8.650;2023-06-14T00:52:57;7.97;;;4.50;;
43118;SDS011;28729;49.838;8.650;2023-06-14T00:56:59;6.57;;;4.37;;
43118;SDS011;28729;49.838;8.650;2023-06-14T01:01:00;8.88;;;4.35;;
43118;SDS011;28729;49.838;8.650;2023-06-14T01:05:04;6.65;;;4.75;;
43118;SDS011;28729;49.838;8.650;2023-06-14T01:13:38;8.80;;;4.68;;
43118;SDS011;28729;49.838;8.650;2023-06-14T01:17:42;7.90;;;4.75;;
43118;SDS011;28729;49.838;8.650;2023-06-14T01:21:48;9.07;;;5.40;;
43118;SDS011;28729;49.838;8.650;2023-06-14T01:25:52;9.40;;;4.97;;
43118;SDS011;28729;49.838;8.650;2023-06-14T01:29:54;8.97;;;5.60;;
43118;SDS011;28729;49.838;8.650;2023-06-14T01:34:05;9.55;;;4.93;;
43118;SDS011;28729;49.838;8.650;2023-06-14T01:38:07;6.40;;;4.65;;
43118;SDS011;28729;49.838;8.650;2023-06-14T01:42:09;7.10;;;4.68;;
43118;SDS011;28729;49.838;8.650;2023-06-14T01:46:26;6.55;;;4.80;;
43118;SDS011;28729;49.838;8.650;2023-06-14T01:50:29;12.53;;;5.30;;
43118;SDS011;28729;49.838;8.650;2023-06-14T01:54:31;8.50;;;5.05;;
43118;SDS011;28729;49.838;8.650;2023-06-14T01:58:33;8.93;;;5.55;;
43118;SDS011;28729;49.838;8.650;2023-06-14T02:02:35;9.18;;;4.93;;
43118;SDS011;28729;49.838;8.650;2023-06-14T02:06:37;8.13;;;4.60;;
43118;SDS011;28729;49.838;8.650;2023-06-14T02:10:39;8.53;;;5.33;;
43118;SDS011;28729;49.838;8.650;2023-06-14T02:14:41;8.67;;;5.30;;
43118;SDS011;28729;49.838;8.650;2023-06-14T02:18:43;6.93;;;4.82;;
43118;SDS011;28729;49.838;8.650;2023-06-14T02:22:45;8.98;;;4.95;;
43118;SDS011;28729;49.838;8.650;2023-06-14T02:26:46;8.27;;;5.15;;
43118;SDS011;28729;49.838;8.650;2023-06-14T02:30:49;7.90;;;5.10;;
43118;SDS011;28729;49.838;8.650;2023-06-14T02:34:51;8.35;;;5.15;;
43118;SDS011;28729;49.838;8.650;2023-06-14T02:38:53;9.23;;;4.38;;
43118;SDS011;28729;49.838;8.650;2023-06-14T02:42:55;7.05;;;5.18;;
43118;SDS011;28729;49.838;8.650;2023-06-14T02:46:57;9.85;;;5.30;;
43118;SDS011;28729;49.838;8.650;2023-06-14T02:55:01;8.30;;;4.82;;
43118;SDS011;28729;49.838;8.650;2023-06-14T02:59:03;7.80;;;5.05;;
43118;SDS011;28729;49.838;8.650;2023-06-14T03:03:06;8.18;;;4.72;;
43118;SDS011;28729;49.838;8.650;2023-06-14T03:07:17;6.78;;;4.90;;
43118;SDS011;28729;49.838;8.650;2023-06-14T03:11:24;8.25;;;4.90;;
43118;SDS011;28729;49.838;8.650;2023-06-14T03:15:26;7.50;;;4.60;;
43118;SDS011;28729;49.838;8.650;2023-06-14T03:19:29;6.95;;;4.38;;
43118;SDS011;28729;49.838;8.650;2023-06-14T03:23:31;6.82;;;4.60;;
43118;SDS011;28729;49.838;8.650;2023-06-14T03:27:33;11.10;;;5.70;;
43118;SDS011;28729;49.838;8.650;2023-06-14T03:31:35;6.60;;;4.88;;
43118;SDS011;28729;49.838;8.650;2023-06-14T03:35:40;9.00;;;5.05;;
43118;SDS011;28729;49.838;8.650;2023-06-14T03:39:44;7.50;;;4.93;;
43118;SDS011;28729;49.838;8.650;2023-06-14T03:43:52;8.55;;;5.18;;
43118;SDS011;28729;49.838;8.650;2023-06-14T03:47:55;6.68;;;4.85;;
43118;SDS011;28729;49.838;8.650;2023-06-14T03:56:01;11.63;;;5.22;;
43118;SDS011;28729;49.838;8.650;2023-06-14T04:00:12;7.70;;;4.75;;
43118;SDS011;28729;49.838;8.650;2023-06-14T04:04:17;10.05;;;5.10;;
43118;SDS011;28729;49.838;8.650;2023-06-14T04:08:20;7.57;;;4.50;;
43118;SDS011;28729;49.838;8.650;2023-06-14T04:12:25;11.52;;;4.55;;
43118;SDS011;28729;49.838;8.650;2023-06-14T04:16:27;11.67;;;5.87;;
43118;SDS011;28729;49.838;8.650;2023-06-14T04:24:31;7.80;;;4.97;;
43118;SDS011;28729;49.838;8.650;2023-06-14T04:28:34;6.83;;;4.23;;
43118;SDS011;28729;49.838;8.650;2023-06-14T04:32:39;7.60;;;4.80;;
43118;SDS011;28729;49.838;8.650;2023-06-14T04:36:44;6.78;;;5.53;;
43118;SDS011;28729;49.838;8.650;2023-06-14T04:40:58;8.57;;;4.95;;
43118;SDS011;28729;49.838;8.650;2023-06-14T04:45:03;10.60;;;5.22;;
43118;SDS011;28729;49.838;8.650;2023-06-14T04:49:06;6.65;;;4.55;;
43118;SDS011;28729;49.838;8.650;2023-06-14T04:53:08;7.30;;;5.07;;
43118;SDS011;28729;49.838;8.650;2023-06-14T04:57:10;7.70;;;4.50;;
43118;SDS011;28729;49.838;8.650;2023-06-14T05:01:16;8.95;;;5.00;;
43118;SDS011;28729;49.838;8.650;2023-06-14T05:05:19;8.90;;;4.53;;
43118;SDS011;28729;49.838;8.650;2023-06-14T05:09:23;8.15;;;4.45;;
43118;SDS011;28729;49.838;8.650;2023-06-14T05:13:25;9.60;;;4.75;;
43118;SDS011;28729;49.838;8.650;2023-06-14T05:17:30;10.18;;;4.65;;
43118;SDS011;28729;49.838;8.650;2023-06-14T05:21:32;9.55;;;5.53;;
43118;SDS011;28729;49.838;8.650;2023-06-14T05:25:42;8.50;;;4.68;;
43118;SDS011;28729;49.838;8.650;2023-06-14T05:29:45;7.55;;;4.78;;
43118;SDS011;28729;49.838;8.650;2023-06-14T05:33:47;8.95;;;4.65;;
43118;SDS011;28729;49.838;8.650;2023-06-14T05:37:50;7.68;;;4.53;;
43118;SDS011;28729;49.838;8.650;2023-06-14T05:41:52;8.55;;;4.35;;
43118;SDS011;28729;49.838;8.650;2023-06-14T05:45:54;9.00;;;5.00;;
43118;SDS011;28729;49.838;8.650;2023-06-14T05:49:56;8.68;;;4.90;;
43118;SDS011;28729;49.838;8.650;2023-06-14T05:53:58;7.78;;;4.30;;
43118;SDS011;28729;49.838;8.650;2023-06-14T05:58:02;6.82;;;4.78;;
43118;SDS011;28729;49.838;8.650;2023-06-14T06:02:05;8.65;;;4.88;;
43118;SDS011;28729;49.838;8.650;2023-06-14T06:06:08;6.20;;;4.30;;
43118;SDS011;28729;49.838;8.650;2023-06-14T06:10:12;9.85;;;5.07;;
43118;SDS011;28729;49.838;8.650;2023-06-14T06:14:15;11.10;;;5.22;;
43118;SDS011;28729;49.838;8.650;2023-06-14T06:18:16;6.90;;;4.45;;
43118;SDS011;28729;49.838;8.650;2023-06-14T06:22:18;7.27;;;4.13;;
43118;SDS011;28729;49.838;8.650;2023-06-14T06:26:21;8.65;;;4.32;;
43118;SDS011;28729;49.838;8.650;2023-06-14T06:30:26;7.32;;;4.10;;
43118;SDS011;28729;49.838;8.650;2023-06-14T06:34:28;9.85;;;4.25;;
43118;SDS011;28729;49.838;8.650;2023-06-14T06:38:30;10.55;;;4.15;;
43118;SDS011;28729;49.838;8.650;2023-06-14T06:42:33;9.13;;;4.65;;
43118;SDS011;28729;49.838;8.650;2023-06-14T06:46:38;8.30;;;4.60;;
43118;SDS011;28729;49.838;8.650;2023-06-14T06:50:42;8.30;;;4.05;;
43118;SDS011;28729;49.838;8.650;2023-06-14T06:54:44;6.60;;;3.70;;
43118;SDS011;28729;49.838;8.650;2023-06-14T06:58:46;7.80;;;4.50;;
43118;SDS011;28729;49.838;8.650;2023-06-14T07:02:50;7.97;;;4.22;;
43118;SDS011;28729;49.838;8.650;2023-06-14T07:06:59;5.85;;;4.05;;
43118;SDS011;28729;49.838;8.650;2023-06-14T07:11:02;10.68;;;4.13;;
43118;SDS011;28729;49.838;8.650;2023-06-14T07:15:06;6.78;;;4.07;;
43118;SDS011;28729;49.838;8.650;2023-06-14T07:19:12;6.22;;;3.45;;
43118;SDS011;28729;49.838;8.650;2023-06-14T07:23:14;9.27;;;4.17;;
43118;SDS011;28729;49.838;8.650;2023-06-14T07:27:17;8.05;;;4.45;;
43118;SDS011;28729;49.838;8.650;2023-06-14T07:31:20;8.13;;;4.85;;
43118;SDS011;28729;49.838;8.650;2023-06-14T07:35:22;6.67;;;3.73;;
43118;SDS011;28729;49.838;8.650;2023-06-14T07:39:26;6.22;;;3.83;;
43118;SDS011;28729;49.838;8.650;2023-06-14T07:43:28;7.80;;;3.67;;
43118;SDS011;28729;49.838;8.650;2023-06-14T07:47:30;6.75;;;3.88;;
43118;SDS011;28729;49.838;8.650;2023-06-14T07:51:34;6.38;;;3.33;;
43118;SDS011;28729;49.838;8.650;2023-06-14T07:55:36;5.70;;;3.20;;
43118;SDS011;28729;49.838;8.650;2023-06-14T07:59:53;6.15;;;3.70;;
43118;SDS011;28729;49.838;8.650;2023-06-14T08:03:59;7.13;;;3.30;;
43118;SDS011;28729;49.838;8.650;2023-06-14T08:08:02;6.25;;;3.70;;
43118;SDS011;28729;49.838;8.650;2023-06-14T08:12:05;7.97;;;3.30;;
43118;SDS011;28729;49.838;8.650;2023-06-14T08:16:14;4.82;;;3.22;;
43118;SDS011;28729;49.838;8.650;2023-06-14T08:20:16;7.27;;;2.97;;
43118;SDS011;28729;49.838;8.650;2023-06-14T08:24:21;6.65;;;3.25;;
43118;SDS011;28729;49.838;8.650;2023-06-14T08:28:26;4.13;;;3.10;;
43118;SDS011;28729;49.838;8.650;2023-06-14T08:36:31;6.77;;;2.70;;
43118;SDS011;28729;49.838;8.650;2023-06-14T08:40:33;5.47;;;3.20;;
43118;SDS011;28729;49.838;8.650;2023-06-14T08:44:40;4.97;;;3.05;;
43118;SDS011;28729;49.838;8.650;2023-06-14T08:48:42;6.03;;;3.20;;
43118;SDS011;28729;49.838;8.650;2023-06-14T08:52:45;8.40;;;3.25;;
43118;SDS011;28729;49.838;8.650;2023-06-14T08:56:52;13.63;;;3.35;;
43118;SDS011;28729;49.838;8.650;2023-06-14T09:01:01;8.60;;;2.78;;
43118;SDS011;28729;49.838;8.650;2023-06-14T09:05:04;5.28;;;2.58;;
43118;SDS011;28729;49.838;8.650;2023-06-14T09:09:07;4.57;;;2.97;;
43118;SDS011;28729;49.838;8.650;2023-06-14T09:13:09;6.70;;;2.60;;
43118;SDS011;28729;49.838;8.650;2023-06-14T09:17:13;3.55;;;2.17;;
43118;SDS011;28729;49.838;8.650;2023-06-14T09:21:18;5.80;;;2.28;;
43118;SDS011;28729;49.838;8.650;2023-06-14T09:25:22;8.27;;;3.30;;
43118;SDS011;28729;49.838;8.650;2023-06-14T09:29:40;3.53;;;2.50;;
43118;SDS011;28729;49.838;8.650;2023-06-14T09:33:42;4.28;;;2.78;;
43118;SDS011;28729;49.838;8.650;2023-06-14T09:37:51;4.50;;;2.25;;
43118;SDS011;28729;49.838;8.650;2023-06-14T09:41:53;6.90;;;2.77;;
43118;SDS011;28729;49.838;8.650;2023-06-14T09:46:03;4.35;;;2.03;;
43118;SDS011;28729;49.838;8.650;2023-06-14T09:50:06;4.93;;;2.08;;
43118;SDS011;28729;49.838;8.650;2023-06-14T09:54:11;5.80;;;2.47;;
43118;SDS011;28729;49.838;8.650;2023-06-14T09:58:17;3.45;;;2.03;;
43118;SDS011;28729;49.838;8.650;2023-06-14T10:02:28;3.50;;;2.30;;
43118;SDS011;28729;49.838;8.650;2023-06-14T10:06:37;4.55;;;2.10;;
43118;SDS011;28729;49.838;8.650;2023-06-14T10:10:42;3.33;;;2.28;;
43118;SDS011;28729;49.838;8.650;2023-06-14T10:14:44;7.60;;;2.53;;
43118;SDS011;28729;49.838;8.650;2023-06-14T10:19:00;4.97;;;2.72;;
43118;SDS011;28729;49.838;8.650;2023-06-14T10:23:27;3.33;;;2.20;;
43118;SDS011;28729;49.838;8.650;2023-06-14T10:27:31;5.57;;;2.30;;
43118;SDS011;28729;49.838;8.650;2023-06-14T10:31:40;5.30;;;2.08;;
43118;SDS011;28729;49.838;8.650;2023-06-14T10:35:46;3.42;;;2.08;;
43118;SDS011;28729;49.838;8.650;2023-06-14T10:39:50;4.75;;;2.05;;
43118;SDS011;28729;49.838;8.650;2023-06-14T10:48:29;8.65;;;2.25;;
43118;SDS011;28729;49.838;8.650;2023-06-14T10:52:35;4.40;;;2.08;;
43118;SDS011;28729;49.838;8.650;2023-06-14T10:56:46;2.80;;;2.05;;
43118;SDS011;28729;49.838;8.650;2023-06-14T11:00:54;3.00;;;1.85;;
43118;SDS011;28729;49.838;8.650;2023-06-14T11:04:59;6.35;;;2.00;;
43118;SDS011;28729;49.838;8.650;2023-06-14T11:13:47;5.45;;;1.90;;
43118;SDS011;28729;49.838;8.650;2023-06-14T11:17:52;2.80;;;2.10;;
43118;SDS011;28729;49.838;8.650;2023-06-14T11:21:54;4.82;;;2.10;;
43118;SDS011;28729;49.838;8.650;2023-06-14T11:25:56;4.45;;;2.13;;
43118;SDS011;28729;49.838;8.650;2023-06-14T11:30:01;6.68;;;2.30;;
43118;SDS011;28729;49.838;8.650;2023-06-14T11:34:05;3.67;;;2.47;;
43118;SDS011;28729;49.838;8.650;2023-06-14T11:38:09;6.57;;;2.15;;
43118;SDS011;28729;49.838;8.650;2023-06-14T11:42:16;4.53;;;2.50;;
43118;SDS011;28729;49.838;8.650;2023-06-14T11:46:18;4.32;;;2.38;;
43118;SDS011;28729;49.838;8.650;2023-06-14T11:50:25;5.28;;;2.33;;
43118;SDS011;28729;49.838;8.650;2023-06-14T11:54:31;8.57;;;2.70;;
43118;SDS011;28729;49.838;8.650;2023-06-14T11:58:35;4.97;;;2.60;;
43118;SDS011;28729;49.838;8.650;2023-06-14T12:02:38;3.58;;;2.60;;
43118;SDS011;28729;49.838;8.650;2023-06-14T12:06:42;4.47;;;2.50;;
43118;SDS011;28729;49.838;8.650;2023-06-14T12:10:47;6.88;;;2.63;;
43118;SDS011;28729;49.838;8.650;2023-06-14T12:14:57;5.43;;;2.65;;
43118;SDS011;28729;49.838;8.650;2023-06-14T12:19:09;6.07;;;3.20;;
43118;SDS011;28729;49.838;8.650;2023-06-14T12:23:12;5.70;;;2.85;;
43118;SDS011;28729;49.838;8.650;2023-06-14T12:27:15;6.03;;;2.97;;
43118;SDS011;28729;49.838;8.650;2023-06-14T12:31:17;5.40;;;3.22;;
43118;SDS011;28729;49.838;8.650;2023-06-14T12:35:20;6.07;;;3.10;;
43118;SDS011;28729;49.838;8.650;2023-06-14T12:39:23;3.50;;;2.95;;
43118;SDS011;28729;49.838;8.650;2023-06-14T12:43:26;7.55;;;3.08;;
43118;SDS011;28729;49.838;8.650;2023-06-14T12:47:30;6.00;;;3.17;;
43118;SDS011;28729;49.838;8.650;2023-06-14T12:51:32;4.63;;;3.10;;
43118;SDS011;28729;49.838;8.650;2023-06-14T12:55:37;5.38;;;3.00;;
43118;SDS011;28729;49.838;8.650;2023-06-14T12:59:38;13.15;;;3.53;;
43118;SDS011;28729;49.838;8.650;2023-06-14T13:03:42;8.90;;;4.03;;
43118;SDS011;28729;49.838;8.650;2023-06-14T13:07:43;5.88;;;2.95;;
43118;SDS011;28729;49.838;8.650;2023-06-14T13:11:48;4.22;;;2.88;;
43118;SDS011;28729;49.838;8.650;2023-06-14T13:15:49;5.07;;;2.63;;
43118;SDS011;28729;49.838;8.650;2023-06-14T13:19:53;8.25;;;3.22;;
43118;SDS011;28729;49.838;8.650;2023-06-14T13:23:54;6.47;;;3.17;;
43118;SDS011;28729;49.838;8.650;2023-06-14T13:27:57;5.35;;;4.10;;
43118;SDS011;28729;49.838;8.650;2023-06-14T13:31:59;3.67;;;2.92;;
43118;SDS011;28729;49.838;8.650;2023-06-14T13:36:04;7.88;;;3.33;;
43118;SDS011;28729;49.838;8.650;2023-06-14T13:40:08;5.55;;;3.25;;
43118;SDS011;28729;49.838;8.650;2023-06-14T13:44:11;5.10;;;3.40;;
43118;SDS011;28729;49.838;8.650;2023-06-14T13:48:17;3.75;;;3.35;;
43118;SDS011;28729;49.838;8.650;2023-06-14T13:52:19;32.85;;;5.85;;
43118;SDS011;28729;49.838;8.650;2023-06-14T13:56:23;4.20;;;3.03;;
43118;SDS011;28729;49.838;8.650;2023-06-14T14:00:28;5.47;;;3.28;;
43118;SDS011;28729;49.838;8.650;2023-06-14T14:04:30;6.68;;;3.92;;
43118;SDS011;28729;49.838;8.650;2023-06-14T14:08:32;4.03;;;3.40;;
43118;SDS011;28729;49.838;8.650;2023-06-14T14:12:34;5.22;;;2.92;;
43118;SDS011;28729;49.838;8.650;2023-06-14T14:16:35;6.07;;;3.35;;
43118;SDS011;28729;49.838;8.650;2023-06-14T14:20:41;5.03;;;3.30;;
43118;SDS011;28729;49.838;8.650;2023-06-14T14:24:42;3.85;;;3.20;;
43118;SDS011;28729;49.838;8.650;2023-06-14T14:28:44;5.55;;;3.33;;
43118;SDS011;28729;49.838;8.650;2023-06-14T14:32:49;5.68;;;3.20;;
43118;SDS011;28729;49.838;8.650;2023-06-14T14:36:52;7.18;;;3.47;;
43118;SDS011;28729;49.838;8.650;2023-06-14T14:40:55;12.32;;;3.67;;
43118;SDS011;28729;49.838;8.650;2023-06-14T14:44:56;31.42;;;5.78;;
43118;SDS011;28729;49.838;8.650;2023-06-14T14:48:59;6.57;;;3.33;;
43118;SDS011;28729;49.838;8.650;2023-06-14T14:53:02;4.57;;;2.83;;
43118;SDS011;28729;49.838;8.650;2023-06-14T14:57:04;5.13;;;3.25;;
43118;SDS011;28729;49.838;8.650;2023-06-14T15:01:08;5.35;;;2.72;;
43118;SDS011;28729;49.838;8.650;2023-06-14T15:05:11;5.75;;;2.92;;
43118;SDS011;28729;49.838;8.650;2023-06-14T15:13:17;4.95;;;2.80;;
43118;SDS011;28729;49.838;8.650;2023-06-14T15:17:21;4.38;;;3.20;;
43118;SDS011;28729;49.838;8.650;2023-06-14T15:21:28;6.53;;;3.35;;
43118;SDS011;28729;49.838;8.650;2023-06-14T15:25:31;5.85;;;3.42;;
43118;SDS011;28729;49.838;8.650;2023-06-14T15:29:34;16.08;;;3.83;;
43118;SDS011;28729;49.838;8.650;2023-06-14T15:33:36;5.72;;;2.97;;
43118;SDS011;28729;49.838;8.650;2023-06-14T15:37:39;6.60;;;2.95;;
43118;SDS011;28729;49.838;8.650;2023-06-14T15:45:43;9.90;;;2.60;;
43118;SDS011;28729;49.838;8.650;2023-06-14T15:49:48;9.27;;;3.10;;
43118;SDS011;28729;49.838;8.650;2023-06-14T15:53:49;4.25;;;2.25;;
43118;SDS011;28729;49.838;8.650;2023-06-14T15:57:52;2.75;;;2.00;;
43118;SDS011;28729;49.838;8.650;2023-06-14T16:01:54;6.38;;;4.07;;
43118;SDS011;28729;49.838;8.650;2023-06-14T16:05:55;6.10;;;2.45;;
43118;SDS011;28729;49.838;8.650;2023-06-14T16:09:57;2.88;;;1.98;;
43118;SDS011;28729;49.838;8.650;2023-06-14T16:13:59;2.83;;;2.03;;
43118;SDS011;28729;49.838;8.650;2023-06-14T16:18:01;8.05;;;2.88;;
43118;SDS011;28729;49.838;8.650;2023-06-14T16:22:03;4.60;;;2.80;;
43118;SDS011;28729;49.838;8.650;2023-06-14T16:26:09;5.60;;;2.60;;
43118;SDS011;28729;49.838;8.650;2023-06-14T16:30:15;6.03;;;2.47;;
43118;SDS011;28729;49.838;8.650;2023-06-14T16:34:18;5.18;;;2.33;;
43118;SDS011;28729;49.838;8.650;2023-06-14T16:38:20;5.22;;;2.38;;
43118;SDS011;28729;49.838;8.650;2023-06-14T16:42:24;4.15;;;2.75;;
43118;SDS011;28729;49.838;8.650;2023-06-14T16:46:29;9.68;;;2.55;;
43118;SDS011;28729;49.838;8.650;2023-06-14T16:50:34;3.97;;;2.08;;
43118;SDS011;28729;49.838;8.650;2023-06-14T16:54:38;7.05;;;2.10;;
43118;SDS011;28729;49.838;8.650;2023-06-14T16:58:39;4.47;;;2.00;;
43118;SDS011;28729;49.838;8.650;2023-06-14T17:02:41;4.90;;;2.10;;
43118;SDS011;28729;49.838;8.650;2023-06-14T17:06:45;3.53;;;2.50;;
43118;SDS011;28729;49.838;8.650;2023-06-14T17:10:47;6.10;;;2.22;;
43118;SDS011;28729;49.838;8.650;2023-06-14T17:14:50;4.72;;;2.22;;
43118;SDS011;28729;49.838;8.650;2023-06-14T17:18:53;5.13;;;1.88;;
43118;SDS011;28729;49.838;8.650;2023-06-14T17:22:56;3.53;;;2.22;;
43118;SDS011;28729;49.838;8.650;2023-06-14T17:27:00;5.75;;;2.30;;
43118;SDS011;28729;49.838;8.650;2023-06-14T17:31:01;4.93;;;2.20;;
43118;SDS011;28729;49.838;8.650;2023-06-14T17:35:04;5.13;;;2.35;;
43118;SDS011;28729;49.838;8.650;2023-06-14T17:39:07;3.90;;;2.25;;
43118;SDS011;28729;49.838;8.650;2023-06-14T17:43:09;4.93;;;2.58;;
43118;SDS011;28729;49.838;8.650;2023-06-14T17:47:13;4.10;;;2.35;;
43118;SDS011;28729;49.838;8.650;2023-06-14T17:51:35;7.47;;;2.55;;
43118;SDS011;28729;49.838;8.650;2023-06-14T17:55:37;4.75;;;2.20;;
43118;SDS011;28729;49.838;8.650;2023-06-14T17:59:42;4.35;;;2.40;;
43118;SDS011;28729;49.838;8.650;2023-06-14T18:03:45;6.82;;;2.30;;
43118;SDS011;28729;49.838;8.650;2023-06-14T18:07:47;3.70;;;2.40;;
43118;SDS011;28729;49.838;8.650;2023-06-14T18:11:49;4.13;;;2.38;;
43118;SDS011;28729;49.838;8.650;2023-06-14T18:15:51;3.75;;;2.40;;
43118;SDS011;28729;49.838;8.650;2023-06-14T18:19:53;4.20;;;2.47;;
43118;SDS011;28729;49.838;8.650;2023-06-14T18:23:54;3.50;;;2.13;;
43118;SDS011;28729;49.838;8.650;2023-06-14T18:27:57;4.45;;;2.67;;
43118;SDS011;28729;49.838;8.650;2023-06-14T18:31:58;5.57;;;2.20;;
43118;SDS011;28729;49.838;8.650;2023-06-14T18:36:00;3.28;;;2.28;;
43118;SDS011;28729;49.838;8.650;2023-06-14T18:40:03;3.45;;;2.25;;
43118;SDS011;28729;49.838;8.650;2023-06-14T18:44:06;3.75;;;2.30;;
43118;SDS011;28729;49.838;8.650;2023-06-14T18:48:10;4.53;;;2.53;;
43118;SDS011;28729;49.838;8.650;2023-06-14T18:52:12;5.28;;;2.20;;
43118;SDS011;28729;49.838;8.650;2023-06-14T18:56:16;4.32;;;2.70;;
43118;SDS011;28729;49.838;8.650;2023-06-14T19:00:18;5.88;;;2.65;;
43118;SDS011;28729;49.838;8.650;2023-06-14T19:04:20;3.33;;;2.35;;
43118;SDS011;28729;49.838;8.650;2023-06-14T19:08:22;4.35;;;2.00;;
43118;SDS011;28729;49.838;8.650;2023-06-14T19:16:26;4.53;;;2.55;;
43118;SDS011;28729;49.838;8.650;2023-06-14T19:20:30;5.50;;;2.30;;
43118;SDS011;28729;49.838;8.650;2023-06-14T19:24:31;3.87;;;2.80;;
43118;SDS011;28729;49.838;8.650;2023-06-14T19:28:35;4.47;;;2.83;;
43118;SDS011;28729;49.838;8.650;2023-06-14T19:32:39;6.57;;;2.70;;
43118;SDS011;28729;49.838;8.650;2023-06-14T19:36:41;5.22;;;3.20;;
43118;SDS011;28729;49.838;8.650;2023-06-14T19:40:44;5.88;;;3.10;;
43118;SDS011;28729;49.838;8.650;2023-06-14T19:44:46;5.95;;;3.13;;
43118;SDS011;28729;49.838;8.650;2023-06-14T19:48:50;3.83;;;2.55;;
43118;SDS011;28729;49.838;8.650;2023-06-14T19:52:53;4.35;;;2.70;;
43118;SDS011;28729;49.838;8.650;2023-06-14T19:56:56;4.10;;;2.88;;
43118;SDS011;28729;49.838;8.650;2023-06-14T20:00:59;5.50;;;2.67;;
43118;SDS011;28729;49.838;8.650;2023-06-14T20:05:01;5.47;;;3.00;;
43118;SDS011;28729;49.838;8.650;2023-06-14T20:09:04;3.63;;;2.67;;
43118;SDS011;28729;49.838;8.650;2023-06-14T20:13:14;3.97;;;2.60;;
43118;SDS011;28729;49.838;8.650;2023-06-14T20:17:16;3.83;;;2.60;;
43118;SDS011;28729;49.838;8.650;2023-06-14T20:25:21;6.53;;;2.70;;
43118;SDS011;28729;49.838;8.650;2023-06-14T20:29:23;4.20;;;2.73;;
43118;SDS011;28729;49.838;8.650;2023-06-14T20:33:25;5.93;;;2.97;;
43118;SDS011;28729;49.838;8.650;2023-06-14T20:37:28;8.38;;;3.45;;
43118;SDS011;28729;49.838;8.650;2023-06-14T20:41:30;5.57;;;2.83;;
43118;SDS011;28729;49.838;8.650;2023-06-14T20:45:33;6.90;;;2.83;;
43118;SDS011;28729;49.838;8.650;2023-06-14T20:49:36;5.68;;;2.78;;
43118;SDS011;28729;49.838;8.650;2023-06-14T20:53:37;6.15;;;2.80;;
43118;SDS011;28729;49.838;8.650;2023-06-14T20:57:39;6.33;;;2.67;;
43118;SDS011;28729;49.838;8.650;2023-06-14T21:01:41;4.47;;;2.83;;
43118;SDS011;28729;49.838;8.650;2023-06-14T21:09:46;7.13;;;2.93;;
43118;SDS011;28729;49.838;8.650;2023-06-14T21:13:48;6.25;;;3.22;;
43118;SDS011;28729;49.838;8.650;2023-06-14T21:17:50;9.50;;;3.50;;
43118;SDS011;28729;49.838;8.650;2023-06-14T21:25:56;4.00;;;2.88;;
43118;SDS011;28729;49.838;8.650;2023-06-14T21:29:58;4.68;;;3.05;;
43118;SDS011;28729;49.838;8.650;2023-06-14T21:33:59;3.87;;;2.63;;
43118;SDS011;28729;49.838;8.650;2023-06-14T21:38:01;5.03;;;2.95;;
43118;SDS011;28729;49.838;8.650;2023-06-14T21:42:04;10.47;;;3.03;;
43118;SDS011;28729;49.838;8.650;2023-06-14T21:46:08;4.90;;;2.97;;
43118;SDS011;28729;49.838;8.650;2023-06-14T21:50:10;5.00;;;2.97;;
43118;SDS011;28729;49.838;8.650;2023-06-14T21:54:13;4.57;;;3.00;;
43118;SDS011;28729;49.838;8.650;2023-06-14T21:58:14;7.28;;;3.20;;
43118;SDS011;28729;49.838;8.650;2023-06-14T22:02:16;7.37;;;3.80;;
43118;SDS011;28729;49.838;8.650;2023-06-14T22:06:18;5.90;;;3.77;;
43118;SDS011;28729;49.838;8.650;2023-06-14T22:10:20;6.27;;;3.20;;
43118;SDS011;28729;49.838;8.650;2023-06-14T22:14:25;5.75;;;3.13;;
43118;SDS011;28729;49.838;8.650;2023-06-14T22:18:32;4.30;;;2.95;;
43118;SDS011;28729;49.838;8.650;2023-06-14T22:22:35;5.07;;;3.03;;
43118;SDS011;28729;49.838;8.650;2023-06-14T22:26:40;5.93;;;3.25;;
43118;SDS011;28729;49.838;8.650;2023-06-14T22:30:48;5.57;;;2.95;;
43118;SDS011;28729;49.838;8.650;2023-06-14T22:34:51;5.55;;;2.78;;
43118;SDS011;28729;49.838;8.650;2023-06-14T22:38:52;4.38;;;2.80;;
43118;SDS011;28729;49.838;8.650;2023-06-14T22:42:55;7.63;;;3.08;;
43118;SDS011;28729;49.838;8.650;2023-06-14T22:46:58;7.78;;;3.47;;
43118;SDS011;28729;49.838;8.650;2023-06-14T22:51:01;5.63;;;3.00;;
43118;SDS011;28729;49.838;8.650;2023-06-14T22:55:03;6.47;;;3.28;;
43118;SDS011;28729;49.838;8.650;2023-06-14T22:59:05;4.50;;;2.77;;
43118;SDS011;28729;49.838;8.650;2023-06-14T23:03:07;4.50;;;3.40;;
43118;SDS011;28729;49.838;8.650;2023-06-14T23:07:08;4.68;;;3.10;;
43118;SDS011;28729;49.838;8.650;2023-06-14T23:11:11;5.03;;;3.33;;
43118;SDS011;28729;49.838;8.650;2023-06-14T23:15:18;4.68;;;2.95;;
43118;SDS011;28729;49.838;8.650;2023-06-14T23:19:20;4.25;;;3.03;;
43118;SDS011;28729;49.838;8.650;2023-06-14T23:23:24;7.30;;;3.13;;
43118;SDS011;28729;49.838;8.650;2023-06-14T23:27:28;4.25;;;2.90;;
43118;SDS011;28729;49.838;8.650;2023-06-14T23:31:31;5.90;;;3.08;;
43118;SDS011;28729;49.838;8.650;2023-06-14T23:35:35;4.22;;;3.40;;
43118;SDS011;28729;49.838;8.650;2023-06-14T23:39:37;8.95;;;3.22;;
43118;SDS011;28729;49.838;8.650;2023-06-14T23:43:49;5.15;;;3.45;;
43118;SDS011;28729;49.838;8.650;2023-06-14T23:47:52;4.75;;;3.42;;
43118;SDS011;28729;49.838;8.650;2023-06-14T23:51:54;4.20;;;3.22;;
43118;SDS011;28729;49.838;8.650;2023-06-14T23:55:59;6.45;;;3.90;;
